This demonstration page uses our WeatherBlox Daily Observations layout. Learn more.

41.55636, -103.73856

Hourly Observations for August 12, 2018

Temp ( °F °C ) Dew Point ( °F °C ) Humidity (%) Winds ( mph kmh ) Pressure ( in mb ) Visibility ( mi km ) Precip ( " mm )
12:58 am 00:58 Clear 59 15 46 7.8 62 62 SSW 8 13 30.03 1017 10 16.09344 0 0
1:58 am 01:58 Clear 63 17 46 7.5 54 54 S 14 22 30 1016 10 16.09344 0 0
2:58 am 02:58 Clear 59 15.2 47 8.2 63 63 SSW 12 19 30 1016 10 16.09344 0 0
3:58 am 03:58 Clear 61 16.1 47 8.5 61 61 SSW 17 28 29.97 1015 10 16.09344 0 0
4:58 am 04:58 Clear 62 16.8 47 8.5 58 58 SSW 18 30 29.97 1015 10 16.09344 0 0
5:58 am 05:58 Clear 60 15.7 48 8.9 64 64 SSW 16 26 30 1016 10 16.09344 0 0
6:58 am 06:58 Sunny 62 16.4 48 9.1 62 62 SSW 20 31 30 1016 10 16.09344 0 0
7:58 am 07:58 Sunny 67 19.2 49 9.4 53 53 SSW 17 28 30.03 1017 10 16.09344 0 0
8:58 am 08:58 Sunny 71 21.8 47 8.4 42 42 SSW 18 30 30.03 1017 10 16.09344 0 0
9:58 am 09:58 Sunny 75 23.7 46 7.6 36 36 SSW 20 31 30 1016 10 16.09344 0 0
10:58 am 10:58 Sunny 78 25.4 44 6.9 31 31 S 18 30 30 1016 10 16.09344 0 0
11:58 am 11:58 Sunny 79 26.2 43 6.1 28 28 S 22 35 30 1016 10 16.09344 0 0
12:58 pm 12:58 Sunny 81 27.4 44 6.7 27 27 SSW 21 33 30 1016 10 16.09344 0 0
1:58 pm 13:58 Sunny 83 28.3 41 5.1 23 23 S 22 35 29.97 1015 10 16.09344 0 0
2:58 pm 14:58 Sunny 84 28.8 40 4.4 21 21 S 18 30 29.97 1015 8 12.874752 0 0
3:58 pm 15:58 Sunny 84 28.9 44 6.9 25 25 S 13 20 29.94 1014 10 16.09344 0 0
4:58 pm 16:58 Sunny 83 28.2 42 5.8 24 24 S 17 28 29.94 1014 10 16.09344 0 0
5:58 pm 17:58 Sunny 81 27.2 44 6.4 27 27 S 15 24 29.94 1014 10 16.09344 0 0
6:58 pm 18:58 Sunny 77 25 46 7.5 33 33 S 17 28 29.91 1013 10 16.09344 0 0
7:58 pm 19:58 Sunny 73 22.5 47 8.3 40 40 S 14 22 29.94 1014 9 14.484096 0 0
8:58 pm 20:58 Clear 68 20.1 50 10.2 53 53 SSE 15 24 29.94 1014 10 16.09344 0 0
9:58 pm 21:58 Clear 65 18.6 51 10.4 59 59 S 9 15 29.97 1015 10 16.09344 0 0
10:58 pm 22:58 Clear 64 17.9 51 10.3 61 61 S 15 24 29.94 1014 10 16.09344 0 0
11:58 pm 23:58 Clear 61 16.3 51 10.5 69 69 S 12 19 29.94 1014 10 16.09344 0 0

Powered by AerisWeather